sensor_id;sensor_type;location;lat;lon;timestamp;P1;durP1;ratioP1;P2;durP2;ratioP2
30617;SDS011;17384;51.214;9.202;2022-09-13T00:00:37;13.70;;;8.68;;
30617;SDS011;17384;51.214;9.202;2022-09-13T00:03:02;10.65;;;7.50;;
30617;SDS011;17384;51.214;9.202;2022-09-13T00:05:28;13.95;;;7.50;;
30617;SDS011;17384;51.214;9.202;2022-09-13T00:07:54;13.40;;;8.38;;
30617;SDS011;17384;51.214;9.202;2022-09-13T00:10:20;16.33;;;8.63;;
30617;SDS011;17384;51.214;9.202;2022-09-13T00:12:46;13.05;;;8.95;;
30617;SDS011;17384;51.214;9.202;2022-09-13T00:15:11;12.38;;;8.50;;
30617;SDS011;17384;51.214;9.202;2022-09-13T00:17:37;15.23;;;10.27;;
30617;SDS011;17384;51.214;9.202;2022-09-13T00:20:03;12.90;;;9.20;;
30617;SDS011;17384;51.214;9.202;2022-09-13T00:22:28;13.27;;;8.70;;
30617;SDS011;17384;51.214;9.202;2022-09-13T00:24:54;16.90;;;8.90;;
30617;SDS011;17384;51.214;9.202;2022-09-13T00:27:19;11.25;;;8.25;;
30617;SDS011;17384;51.214;9.202;2022-09-13T00:29:45;12.60;;;8.63;;
30617;SDS011;17384;51.214;9.202;2022-09-13T00:32:11;16.42;;;10.30;;
30617;SDS011;17384;51.214;9.202;2022-09-13T00:34:36;16.33;;;8.52;;
30617;SDS011;17384;51.214;9.202;2022-09-13T00:37:02;13.60;;;9.32;;
30617;SDS011;17384;51.214;9.202;2022-09-13T00:39:27;10.60;;;7.53;;
30617;SDS011;17384;51.214;9.202;2022-09-13T00:41:53;14.40;;;9.77;;
30617;SDS011;17384;51.214;9.202;2022-09-13T00:47:02;19.80;;;10.23;;
30617;SDS011;17384;51.214;9.202;2022-09-13T00:49:33;15.73;;;10.30;;
30617;SDS011;17384;51.214;9.202;2022-09-13T00:52:01;14.82;;;9.15;;
30617;SDS011;17384;51.214;9.202;2022-09-13T00:54:30;12.88;;;8.90;;
30617;SDS011;17384;51.214;9.202;2022-09-13T00:56:56;14.32;;;9.30;;
30617;SDS011;17384;51.214;9.202;2022-09-13T00:59:27;15.38;;;10.30;;
30617;SDS011;17384;51.214;9.202;2022-09-13T01:01:55;16.25;;;10.77;;
30617;SDS011;17384;51.214;9.202;2022-09-13T01:04:21;14.32;;;10.25;;
30617;SDS011;17384;51.214;9.202;2022-09-13T01:06:48;16.45;;;10.68;;
30617;SDS011;17384;51.214;9.202;2022-09-13T01:09:16;13.73;;;10.15;;
30617;SDS011;17384;51.214;9.202;2022-09-13T01:11:48;15.07;;;9.68;;
30617;SDS011;17384;51.214;9.202;2022-09-13T01:14:17;12.98;;;8.63;;
30617;SDS011;17384;51.214;9.202;2022-09-13T01:16:43;21.45;;;9.73;;
30617;SDS011;17384;51.214;9.202;2022-09-13T01:19:09;16.58;;;8.98;;
30617;SDS011;17384;51.214;9.202;2022-09-13T01:24:36;11.73;;;8.20;;
30617;SDS011;17384;51.214;9.202;2022-09-13T01:32:32;15.75;;;10.05;;
30617;SDS011;17384;51.214;9.202;2022-09-13T01:40:04;12.30;;;8.48;;
30617;SDS011;17384;51.214;9.202;2022-09-13T01:50:36;15.77;;;10.77;;
30617;SDS011;17384;51.214;9.202;2022-09-13T01:55:47;14.73;;;9.07;;
30617;SDS011;17384;51.214;9.202;2022-09-13T02:00:58;19.52;;;10.35;;
30617;SDS011;17384;51.214;9.202;2022-09-13T02:03:30;19.15;;;10.93;;
30617;SDS011;17384;51.214;9.202;2022-09-13T02:06:00;17.83;;;11.52;;
30617;SDS011;17384;51.214;9.202;2022-09-13T02:13:53;19.17;;;12.63;;
30617;SDS011;17384;51.214;9.202;2022-09-13T02:16:24;18.17;;;12.18;;
30617;SDS011;17384;51.214;9.202;2022-09-13T02:18:52;26.83;;;13.32;;
30617;SDS011;17384;51.214;9.202;2022-09-13T02:21:21;26.95;;;13.48;;
30617;SDS011;17384;51.214;9.202;2022-09-13T02:23:51;20.35;;;12.45;;
30617;SDS011;17384;51.214;9.202;2022-09-13T02:26:19;20.42;;;12.77;;
30617;SDS011;17384;51.214;9.202;2022-09-13T02:28:50;19.30;;;12.40;;
30617;SDS011;17384;51.214;9.202;2022-09-13T02:31:17;20.88;;;10.70;;
30617;SDS011;17384;51.214;9.202;2022-09-13T02:33:46;18.65;;;11.32;;
30617;SDS011;17384;51.214;9.202;2022-09-13T02:36:20;14.05;;;9.20;;
30617;SDS011;17384;51.214;9.202;2022-09-13T02:38:49;14.98;;;9.18;;
30617;SDS011;17384;51.214;9.202;2022-09-13T02:41:18;12.85;;;9.15;;
30617;SDS011;17384;51.214;9.202;2022-09-13T02:43:50;17.52;;;10.60;;
30617;SDS011;17384;51.214;9.202;2022-09-13T02:51:30;24.98;;;12.63;;
30617;SDS011;17384;51.214;9.202;2022-09-13T02:56:33;15.52;;;10.13;;
30617;SDS011;17384;51.214;9.202;2022-09-13T02:59:08;18.98;;;9.90;;
30617;SDS011;17384;51.214;9.202;2022-09-13T03:01:36;14.63;;;9.82;;
30617;SDS011;17384;51.214;9.202;2022-09-13T03:04:02;18.88;;;10.57;;
30617;SDS011;17384;51.214;9.202;2022-09-13T03:06:28;21.30;;;12.32;;
30617;SDS011;17384;51.214;9.202;2022-09-13T03:08:53;30.10;;;15.15;;
30617;SDS011;17384;51.214;9.202;2022-09-13T03:16:35;33.37;;;15.90;;
30617;SDS011;17384;51.214;9.202;2022-09-13T03:19:22;29.63;;;14.60;;
30617;SDS011;17384;51.214;9.202;2022-09-13T03:34:51;20.75;;;11.32;;
30617;SDS011;17384;51.214;9.202;2022-09-13T03:40:30;18.92;;;11.07;;
30617;SDS011;17384;51.214;9.202;2022-09-13T03:42:50;17.80;;;10.73;;
30617;SDS011;17384;51.214;9.202;2022-09-13T03:45:17;22.23;;;13.43;;
30617;SDS011;17384;51.214;9.202;2022-09-13T03:47:45;20.67;;;12.25;;
30617;SDS011;17384;51.214;9.202;2022-09-13T03:50:14;21.10;;;12.40;;
30617;SDS011;17384;51.214;9.202;2022-09-13T03:52:40;21.80;;;12.73;;
30617;SDS011;17384;51.214;9.202;2022-09-13T03:55:06;23.35;;;12.35;;
30617;SDS011;17384;51.214;9.202;2022-09-13T03:57:32;21.08;;;11.73;;
30617;SDS011;17384;51.214;9.202;2022-09-13T03:59:57;21.67;;;12.13;;
30617;SDS011;17384;51.214;9.202;2022-09-13T04:02:23;22.10;;;13.15;;
30617;SDS011;17384;51.214;9.202;2022-09-13T04:04:48;23.48;;;13.80;;
30617;SDS011;17384;51.214;9.202;2022-09-13T04:07:15;25.40;;;14.90;;
30617;SDS011;17384;51.214;9.202;2022-09-13T04:09:41;23.58;;;15.30;;
30617;SDS011;17384;51.214;9.202;2022-09-13T04:12:06;23.55;;;13.55;;
30617;SDS011;17384;51.214;9.202;2022-09-13T04:14:34;25.02;;;15.40;;
30617;SDS011;17384;51.214;9.202;2022-09-13T04:16:59;25.73;;;14.85;;
30617;SDS011;17384;51.214;9.202;2022-09-13T04:19:24;21.87;;;14.13;;
30617;SDS011;17384;51.214;9.202;2022-09-13T04:21:50;21.90;;;14.40;;
30617;SDS011;17384;51.214;9.202;2022-09-13T04:24:15;26.67;;;15.05;;
30617;SDS011;17384;51.214;9.202;2022-09-13T04:26:41;27.23;;;16.00;;
30617;SDS011;17384;51.214;9.202;2022-09-13T04:29:06;21.15;;;14.88;;
30617;SDS011;17384;51.214;9.202;2022-09-13T04:31:31;29.73;;;15.95;;
30617;SDS011;17384;51.214;9.202;2022-09-13T04:33:57;25.48;;;15.50;;
30617;SDS011;17384;51.214;9.202;2022-09-13T04:36:24;27.73;;;15.10;;
30617;SDS011;17384;51.214;9.202;2022-09-13T04:38:49;25.63;;;14.93;;
30617;SDS011;17384;51.214;9.202;2022-09-13T04:41:15;20.38;;;13.55;;
30617;SDS011;17384;51.214;9.202;2022-09-13T04:43:41;24.40;;;15.63;;
30617;SDS011;17384;51.214;9.202;2022-09-13T04:46:06;23.02;;;14.98;;
30617;SDS011;17384;51.214;9.202;2022-09-13T04:48:31;23.30;;;15.30;;
30617;SDS011;17384;51.214;9.202;2022-09-13T04:51:01;24.73;;;15.70;;
30617;SDS011;17384;51.214;9.202;2022-09-13T04:53:26;27.60;;;14.93;;
30617;SDS011;17384;51.214;9.202;2022-09-13T04:55:52;28.90;;;15.10;;
30617;SDS011;17384;51.214;9.202;2022-09-13T04:58:19;26.60;;;15.13;;
30617;SDS011;17384;51.214;9.202;2022-09-13T05:00:45;26.48;;;15.45;;
30617;SDS011;17384;51.214;9.202;2022-09-13T05:03:10;23.73;;;14.48;;
30617;SDS011;17384;51.214;9.202;2022-09-13T05:05:35;21.83;;;14.83;;
30617;SDS011;17384;51.214;9.202;2022-09-13T05:08:00;24.17;;;15.35;;
30617;SDS011;17384;51.214;9.202;2022-09-13T05:10:26;29.67;;;15.32;;
30617;SDS011;17384;51.214;9.202;2022-09-13T05:12:52;23.73;;;14.20;;
30617;SDS011;17384;51.214;9.202;2022-09-13T05:15:17;23.55;;;13.98;;
30617;SDS011;17384;51.214;9.202;2022-09-13T05:17:42;23.17;;;13.65;;
30617;SDS011;17384;51.214;9.202;2022-09-13T05:20:08;26.70;;;15.23;;
30617;SDS011;17384;51.214;9.202;2022-09-13T05:22:33;25.73;;;15.07;;
30617;SDS011;17384;51.214;9.202;2022-09-13T05:24:58;24.00;;;13.77;;
30617;SDS011;17384;51.214;9.202;2022-09-13T05:27:24;26.27;;;14.90;;
30617;SDS011;17384;51.214;9.202;2022-09-13T05:29:49;20.48;;;13.60;;
30617;SDS011;17384;51.214;9.202;2022-09-13T05:32:14;25.10;;;14.13;;
30617;SDS011;17384;51.214;9.202;2022-09-13T05:34:39;20.45;;;13.75;;
30617;SDS011;17384;51.214;9.202;2022-09-13T05:37:05;21.40;;;13.35;;
30617;SDS011;17384;51.214;9.202;2022-09-13T05:39:30;24.90;;;13.95;;
30617;SDS011;17384;51.214;9.202;2022-09-13T05:41:55;24.33;;;15.32;;
30617;SDS011;17384;51.214;9.202;2022-09-13T05:44:21;24.20;;;14.88;;
30617;SDS011;17384;51.214;9.202;2022-09-13T05:46:47;23.85;;;14.48;;
30617;SDS011;17384;51.214;9.202;2022-09-13T05:49:12;24.55;;;14.35;;
30617;SDS011;17384;51.214;9.202;2022-09-13T05:51:38;22.63;;;13.88;;
30617;SDS011;17384;51.214;9.202;2022-09-13T05:54:03;22.95;;;14.00;;
30617;SDS011;17384;51.214;9.202;2022-09-13T05:56:28;23.88;;;15.30;;
30617;SDS011;17384;51.214;9.202;2022-09-13T05:58:55;23.23;;;14.43;;
30617;SDS011;17384;51.214;9.202;2022-09-13T06:01:21;25.20;;;15.07;;
30617;SDS011;17384;51.214;9.202;2022-09-13T06:03:47;22.38;;;14.75;;
30617;SDS011;17384;51.214;9.202;2022-09-13T06:06:13;22.60;;;14.57;;
30617;SDS011;17384;51.214;9.202;2022-09-13T06:08:39;21.42;;;15.10;;
30617;SDS011;17384;51.214;9.202;2022-09-13T06:11:06;25.25;;;15.48;;
30617;SDS011;17384;51.214;9.202;2022-09-13T06:13:31;22.63;;;14.88;;
30617;SDS011;17384;51.214;9.202;2022-09-13T06:15:57;26.25;;;16.40;;
30617;SDS011;17384;51.214;9.202;2022-09-13T06:18:23;26.00;;;15.85;;
30617;SDS011;17384;51.214;9.202;2022-09-13T06:20:50;23.65;;;15.40;;
30617;SDS011;17384;51.214;9.202;2022-09-13T06:23:15;22.23;;;14.80;;
30617;SDS011;17384;51.214;9.202;2022-09-13T06:25:43;23.77;;;14.32;;
30617;SDS011;17384;51.214;9.202;2022-09-13T06:28:08;25.13;;;15.68;;
30617;SDS011;17384;51.214;9.202;2022-09-13T06:30:34;24.92;;;15.27;;
30617;SDS011;17384;51.214;9.202;2022-09-13T06:33:00;26.25;;;14.88;;
30617;SDS011;17384;51.214;9.202;2022-09-13T06:35:25;24.20;;;14.77;;
30617;SDS011;17384;51.214;9.202;2022-09-13T06:37:54;22.90;;;14.65;;
30617;SDS011;17384;51.214;9.202;2022-09-13T06:40:21;25.67;;;15.05;;
30617;SDS011;17384;51.214;9.202;2022-09-13T06:42:47;31.33;;;14.70;;
30617;SDS011;17384;51.214;9.202;2022-09-13T06:45:12;23.58;;;14.50;;
30617;SDS011;17384;51.214;9.202;2022-09-13T06:47:37;25.08;;;15.43;;
30617;SDS011;17384;51.214;9.202;2022-09-13T06:50:04;26.98;;;14.40;;
30617;SDS011;17384;51.214;9.202;2022-09-13T06:52:29;26.70;;;14.52;;
30617;SDS011;17384;51.214;9.202;2022-09-13T06:54:55;25.20;;;15.75;;
30617;SDS011;17384;51.214;9.202;2022-09-13T06:57:20;30.73;;;15.07;;
30617;SDS011;17384;51.214;9.202;2022-09-13T06:59:45;21.83;;;13.55;;
30617;SDS011;17384;51.214;9.202;2022-09-13T07:02:11;23.95;;;14.23;;
30617;SDS011;17384;51.214;9.202;2022-09-13T07:04:38;34.42;;;13.88;;
30617;SDS011;17384;51.214;9.202;2022-09-13T07:07:04;25.08;;;15.10;;
30617;SDS011;17384;51.214;9.202;2022-09-13T07:09:29;23.40;;;14.82;;
30617;SDS011;17384;51.214;9.202;2022-09-13T07:11:55;28.03;;;13.33;;
30617;SDS011;17384;51.214;9.202;2022-09-13T07:14:21;28.17;;;14.55;;
30617;SDS011;17384;51.214;9.202;2022-09-13T07:16:47;26.45;;;14.57;;
30617;SDS011;17384;51.214;9.202;2022-09-13T07:19:13;33.72;;;13.27;;
30617;SDS011;17384;51.214;9.202;2022-09-13T07:21:39;24.80;;;12.65;;
30617;SDS011;17384;51.214;9.202;2022-09-13T07:24:05;30.75;;;13.35;;
30617;SDS011;17384;51.214;9.202;2022-09-13T07:26:30;27.00;;;13.50;;
30617;SDS011;17384;51.214;9.202;2022-09-13T07:28:57;42.42;;;14.07;;
30617;SDS011;17384;51.214;9.202;2022-09-13T07:31:24;25.35;;;14.18;;
30617;SDS011;17384;51.214;9.202;2022-09-13T07:33:53;26.98;;;14.07;;
30617;SDS011;17384;51.214;9.202;2022-09-13T07:36:19;30.00;;;13.25;;
30617;SDS011;17384;51.214;9.202;2022-09-13T07:38:45;25.77;;;13.38;;
30617;SDS011;17384;51.214;9.202;2022-09-13T07:41:11;24.10;;;13.65;;
30617;SDS011;17384;51.214;9.202;2022-09-13T07:43:36;16.00;;;11.07;;
30617;SDS011;17384;51.214;9.202;2022-09-13T07:46:02;20.90;;;11.77;;
30617;SDS011;17384;51.214;9.202;2022-09-13T07:48:29;19.23;;;11.98;;
30617;SDS011;17384;51.214;9.202;2022-09-13T07:51:08;19.90;;;12.20;;
30617;SDS011;17384;51.214;9.202;2022-09-13T07:53:34;21.05;;;11.32;;
30617;SDS011;17384;51.214;9.202;2022-09-13T07:56:00;19.90;;;11.70;;
30617;SDS011;17384;51.214;9.202;2022-09-13T07:58:26;17.75;;;12.00;;
30617;SDS011;17384;51.214;9.202;2022-09-13T08:00:52;26.05;;;12.82;;
30617;SDS011;17384;51.214;9.202;2022-09-13T08:03:17;18.05;;;11.38;;
30617;SDS011;17384;51.214;9.202;2022-09-13T08:05:42;16.77;;;10.02;;
30617;SDS011;17384;51.214;9.202;2022-09-13T08:08:08;14.68;;;9.68;;
30617;SDS011;17384;51.214;9.202;2022-09-13T08:10:33;19.25;;;9.73;;
30617;SDS011;17384;51.214;9.202;2022-09-13T08:12:59;13.98;;;9.63;;
30617;SDS011;17384;51.214;9.202;2022-09-13T08:15:24;14.00;;;9.57;;
30617;SDS011;17384;51.214;9.202;2022-09-13T08:17:50;15.25;;;9.65;;
30617;SDS011;17384;51.214;9.202;2022-09-13T08:20:15;13.23;;;9.10;;
30617;SDS011;17384;51.214;9.202;2022-09-13T08:22:40;13.75;;;9.50;;
30617;SDS011;17384;51.214;9.202;2022-09-13T08:25:06;13.27;;;9.10;;
30617;SDS011;17384;51.214;9.202;2022-09-13T08:27:31;11.10;;;8.05;;
30617;SDS011;17384;51.214;9.202;2022-09-13T08:29:56;11.60;;;9.45;;
30617;SDS011;17384;51.214;9.202;2022-09-13T08:32:21;14.17;;;8.67;;
30617;SDS011;17384;51.214;9.202;2022-09-13T08:34:47;12.27;;;8.70;;
30617;SDS011;17384;51.214;9.202;2022-09-13T08:37:12;13.10;;;9.10;;
30617;SDS011;17384;51.214;9.202;2022-09-13T08:39:37;10.80;;;8.67;;
30617;SDS011;17384;51.214;9.202;2022-09-13T08:42:09;10.80;;;8.93;;
30617;SDS011;17384;51.214;9.202;2022-09-13T08:49:37;14.07;;;9.00;;
30617;SDS011;17384;51.214;9.202;2022-09-13T08:54:50;10.90;;;8.73;;
30617;SDS011;17384;51.214;9.202;2022-09-13T08:59:46;12.97;;;8.63;;
30617;SDS011;17384;51.214;9.202;2022-09-13T09:07:29;12.13;;;8.48;;
30617;SDS011;17384;51.214;9.202;2022-09-13T09:09:57;11.18;;;8.63;;
30617;SDS011;17384;51.214;9.202;2022-09-13T09:12:32;9.90;;;8.18;;
30617;SDS011;17384;51.214;9.202;2022-09-13T09:15:02;11.80;;;8.40;;
30617;SDS011;17384;51.214;9.202;2022-09-13T09:17:33;13.20;;;8.43;;
30617;SDS011;17384;51.214;9.202;2022-09-13T09:20:05;11.23;;;8.15;;
30617;SDS011;17384;51.214;9.202;2022-09-13T09:22:32;9.73;;;7.53;;
30617;SDS011;17384;51.214;9.202;2022-09-13T09:24:58;9.48;;;7.43;;
30617;SDS011;17384;51.214;9.202;2022-09-13T09:27:24;10.77;;;7.03;;
30617;SDS011;17384;51.214;9.202;2022-09-13T09:29:50;12.18;;;7.03;;
30617;SDS011;17384;51.214;9.202;2022-09-13T09:37:33;12.68;;;6.50;;
30617;SDS011;17384;51.214;9.202;2022-09-13T09:40:00;6.90;;;5.65;;
30617;SDS011;17384;51.214;9.202;2022-09-13T09:42:34;7.38;;;5.72;;
30617;SDS011;17384;51.214;9.202;2022-09-13T09:45:04;7.07;;;5.43;;
30617;SDS011;17384;51.214;9.202;2022-09-13T09:47:46;8.55;;;4.68;;
30617;SDS011;17384;51.214;9.202;2022-09-13T09:50:24;5.70;;;4.78;;
30617;SDS011;17384;51.214;9.202;2022-09-13T09:52:54;7.47;;;5.47;;
30617;SDS011;17384;51.214;9.202;2022-09-13T10:00:15;6.00;;;5.35;;
30617;SDS011;17384;51.214;9.202;2022-09-13T10:02:42;6.70;;;4.00;;
30617;SDS011;17384;51.214;9.202;2022-09-13T10:05:08;6.22;;;4.47;;
30617;SDS011;17384;51.214;9.202;2022-09-13T10:07:34;8.77;;;4.15;;
30617;SDS011;17384;51.214;9.202;2022-09-13T10:10:18;5.88;;;3.50;;
30617;SDS011;17384;51.214;9.202;2022-09-13T10:12:44;5.47;;;4.10;;
30617;SDS011;17384;51.214;9.202;2022-09-13T10:15:19;5.57;;;4.13;;
30617;SDS011;17384;51.214;9.202;2022-09-13T10:20:32;7.88;;;3.55;;
30617;SDS011;17384;51.214;9.202;2022-09-13T10:23:39;5.45;;;3.42;;
30617;SDS011;17384;51.214;9.202;2022-09-13T10:28:31;3.53;;;3.03;;
30617;SDS011;17384;51.214;9.202;2022-09-13T10:31:07;3.83;;;3.33;;
30617;SDS011;17384;51.214;9.202;2022-09-13T10:33:35;6.05;;;3.30;;
30617;SDS011;17384;51.214;9.202;2022-09-13T10:36:02;5.70;;;3.88;;
30617;SDS011;17384;51.214;9.202;2022-09-13T10:38:30;5.35;;;3.80;;
30617;SDS011;17384;51.214;9.202;2022-09-13T10:40:57;4.07;;;3.33;;
30617;SDS011;17384;51.214;9.202;2022-09-13T10:43:22;4.20;;;3.05;;
30617;SDS011;17384;51.214;9.202;2022-09-13T10:45:49;4.05;;;2.50;;
30617;SDS011;17384;51.214;9.202;2022-09-13T10:48:16;3.17;;;2.28;;
30617;SDS011;17384;51.214;9.202;2022-09-13T10:50:58;2.88;;;2.17;;
30617;SDS011;17384;51.214;9.202;2022-09-13T10:55:56;19.83;;;3.60;;
30617;SDS011;17384;51.214;9.202;2022-09-13T10:58:22;2.60;;;2.40;;
30617;SDS011;17384;51.214;9.202;2022-09-13T11:06:18;3.17;;;2.22;;
30617;SDS011;17384;51.214;9.202;2022-09-13T11:08:51;11.98;;;2.60;;
30617;SDS011;17384;51.214;9.202;2022-09-13T11:14:38;4.15;;;2.25;;
30617;SDS011;17384;51.214;9.202;2022-09-13T11:16:47;3.45;;;1.98;;
30617;SDS011;17384;51.214;9.202;2022-09-13T11:19:21;4.38;;;2.05;;
30617;SDS011;17384;51.214;9.202;2022-09-13T11:21:54;2.63;;;2.05;;
30617;SDS011;17384;51.214;9.202;2022-09-13T11:26:56;3.63;;;2.58;;
30617;SDS011;17384;51.214;9.202;2022-09-13T11:31:58;3.75;;;1.63;;
30617;SDS011;17384;51.214;9.202;2022-09-13T11:34:36;3.58;;;2.08;;
30617;SDS011;17384;51.214;9.202;2022-09-13T11:39:38;2.35;;;2.15;;
30617;SDS011;17384;51.214;9.202;2022-09-13T11:49:34;3.13;;;2.10;;
30617;SDS011;17384;51.214;9.202;2022-09-13T11:54:40;3.00;;;2.20;;
30617;SDS011;17384;51.214;9.202;2022-09-13T11:57:10;3.13;;;2.78;;
30617;SDS011;17384;51.214;9.202;2022-09-13T12:04:56;2.33;;;2.10;;
30617;SDS011;17384;51.214;9.202;2022-09-13T12:07:34;8.85;;;2.20;;
30617;SDS011;17384;51.214;9.202;2022-09-13T12:10:12;5.45;;;2.28;;
30617;SDS011;17384;51.214;9.202;2022-09-13T12:12:39;5.38;;;2.38;;
30617;SDS011;17384;51.214;9.202;2022-09-13T12:15:06;4.28;;;2.17;;
30617;SDS011;17384;51.214;9.202;2022-09-13T12:17:41;3.63;;;2.30;;
30617;SDS011;17384;51.214;9.202;2022-09-13T12:20:24;4.13;;;2.38;;
30617;SDS011;17384;51.214;9.202;2022-09-13T12:22:52;2.35;;;2.15;;
30617;SDS011;17384;51.214;9.202;2022-09-13T12:25:23;2.67;;;2.47;;
30617;SDS011;17384;51.214;9.202;2022-09-13T12:30:22;1.90;;;1.80;;
30617;SDS011;17384;51.214;9.202;2022-09-13T12:32:48;2.90;;;2.03;;
30617;SDS011;17384;51.214;9.202;2022-09-13T12:37:56;2.63;;;1.75;;
30617;SDS011;17384;51.214;9.202;2022-09-13T12:40:33;1.92;;;1.60;;
30617;SDS011;17384;51.214;9.202;2022-09-13T12:43:06;3.25;;;1.92;;
30617;SDS011;17384;51.214;9.202;2022-09-13T12:45:48;4.22;;;1.75;;
30617;SDS011;17384;51.214;9.202;2022-09-13T13:01:33;2.30;;;1.75;;
30617;SDS011;17384;51.214;9.202;2022-09-13T13:04:00;4.05;;;1.77;;
30617;SDS011;17384;51.214;9.202;2022-09-13T13:09:33;3.85;;;1.80;;
30617;SDS011;17384;51.214;9.202;2022-09-13T13:12:00;2.30;;;1.70;;
30617;SDS011;17384;51.214;9.202;2022-09-13T13:19:47;6.28;;;2.42;;
30617;SDS011;17384;51.214;9.202;2022-09-13T13:24:56;5.85;;;2.88;;
30617;SDS011;17384;51.214;9.202;2022-09-13T13:27:35;5.20;;;2.57;;
30617;SDS011;17384;51.214;9.202;2022-09-13T13:33:04;2.00;;;1.75;;
30617;SDS011;17384;51.214;9.202;2022-09-13T13:35:30;3.55;;;1.90;;
30617;SDS011;17384;51.214;9.202;2022-09-13T13:38:12;4.55;;;2.40;;
30617;SDS011;17384;51.214;9.202;2022-09-13T13:40:37;2.83;;;2.00;;
30617;SDS011;17384;51.214;9.202;2022-09-13T13:43:16;10.38;;;2.10;;
30617;SDS011;17384;51.214;9.202;2022-09-13T13:46:34;2.17;;;1.98;;
30617;SDS011;17384;51.214;9.202;2022-09-13T13:48:43;3.55;;;2.10;;
30617;SDS011;17384;51.214;9.202;2022-09-13T13:51:23;3.33;;;2.08;;
30617;SDS011;17384;51.214;9.202;2022-09-13T13:53:50;2.40;;;1.80;;
30617;SDS011;17384;51.214;9.202;2022-09-13T13:56:18;3.08;;;1.58;;
30617;SDS011;17384;51.214;9.202;2022-09-13T13:58:46;1.50;;;1.23;;
30617;SDS011;17384;51.214;9.202;2022-09-13T14:01:49;1.40;;;1.30;;
30617;SDS011;17384;51.214;9.202;2022-09-13T14:04:24;5.47;;;1.48;;
30617;SDS011;17384;51.214;9.202;2022-09-13T14:06:54;3.00;;;1.02;;
30617;SDS011;17384;51.214;9.202;2022-09-13T14:12:05;1.23;;;1.13;;
30617;SDS011;17384;51.214;9.202;2022-09-13T14:14:47;3.35;;;1.42;;
30617;SDS011;17384;51.214;9.202;2022-09-13T14:19:43;3.13;;;1.33;;
30617;SDS011;17384;51.214;9.202;2022-09-13T14:22:11;2.28;;;1.10;;
30617;SDS011;17384;51.214;9.202;2022-09-13T14:24:39;0.95;;;0.70;;
30617;SDS011;17384;51.214;9.202;2022-09-13T14:27:12;1.75;;;1.10;;
30617;SDS011;17384;51.214;9.202;2022-09-13T14:29:38;1.83;;;1.40;;
30617;SDS011;17384;51.214;9.202;2022-09-13T14:32:05;2.13;;;1.10;;
30617;SDS011;17384;51.214;9.202;2022-09-13T14:34:35;0.98;;;0.90;;
30617;SDS011;17384;51.214;9.202;2022-09-13T14:37:04;1.30;;;1.20;;
30617;SDS011;17384;51.214;9.202;2022-09-13T14:39:30;4.32;;;1.30;;
30617;SDS011;17384;51.214;9.202;2022-09-13T14:42:00;4.53;;;1.65;;
30617;SDS011;17384;51.214;9.202;2022-09-13T14:44:26;3.10;;;1.67;;
30617;SDS011;17384;51.214;9.202;2022-09-13T14:46:58;6.85;;;1.90;;
30617;SDS011;17384;51.214;9.202;2022-09-13T14:49:47;2.72;;;1.48;;
30617;SDS011;17384;51.214;9.202;2022-09-13T14:52:17;3.03;;;1.48;;
30617;SDS011;17384;51.214;9.202;2022-09-13T14:54:46;3.10;;;2.22;;
30617;SDS011;17384;51.214;9.202;2022-09-13T14:57:27;7.45;;;1.55;;
30617;SDS011;17384;51.214;9.202;2022-09-13T14:59:55;2.13;;;1.65;;
30617;SDS011;17384;51.214;9.202;2022-09-13T15:02:22;2.92;;;1.92;;
30617;SDS011;17384;51.214;9.202;2022-09-13T15:04:52;5.65;;;1.42;;
30617;SDS011;17384;51.214;9.202;2022-09-13T15:09:56;4.25;;;1.58;;
30617;SDS011;17384;51.214;9.202;2022-09-13T15:12:25;2.25;;;1.10;;
30617;SDS011;17384;51.214;9.202;2022-09-13T15:17:56;2.55;;;1.60;;
30617;SDS011;17384;51.214;9.202;2022-09-13T15:20:21;5.30;;;1.50;;
30617;SDS011;17384;51.214;9.202;2022-09-13T15:22:46;3.30;;;1.52;;
30617;SDS011;17384;51.214;9.202;2022-09-13T15:25:27;4.07;;;1.75;;
30617;SDS011;17384;51.214;9.202;2022-09-13T15:27:56;1.98;;;1.45;;
30617;SDS011;17384;51.214;9.202;2022-09-13T15:32:48;13.35;;;1.60;;
30617;SDS011;17384;51.214;9.202;2022-09-13T15:35:21;4.38;;;1.73;;
30617;SDS011;17384;51.214;9.202;2022-09-13T15:37:56;4.60;;;1.70;;
30617;SDS011;17384;51.214;9.202;2022-09-13T15:40:22;3.55;;;1.50;;
30617;SDS011;17384;51.214;9.202;2022-09-13T15:42:48;8.43;;;1.63;;
30617;SDS011;17384;51.214;9.202;2022-09-13T15:45:14;2.03;;;1.40;;
30617;SDS011;17384;51.214;9.202;2022-09-13T15:47:39;2.80;;;1.58;;
30617;SDS011;17384;51.214;9.202;2022-09-13T15:50:05;2.33;;;1.33;;
30617;SDS011;17384;51.214;9.202;2022-09-13T15:52:30;1.50;;;1.10;;
30617;SDS011;17384;51.214;9.202;2022-09-13T15:54:56;2.58;;;1.45;;
30617;SDS011;17384;51.214;9.202;2022-09-13T15:57:22;4.53;;;1.47;;
30617;SDS011;17384;51.214;9.202;2022-09-13T15:59:48;2.45;;;1.30;;
30617;SDS011;17384;51.214;9.202;2022-09-13T16:02:18;4.43;;;1.35;;
30617;SDS011;17384;51.214;9.202;2022-09-13T16:04:43;2.72;;;1.30;;
30617;SDS011;17384;51.214;9.202;2022-09-13T16:07:09;6.40;;;1.35;;
30617;SDS011;17384;51.214;9.202;2022-09-13T16:09:37;3.10;;;1.17;;
30617;SDS011;17384;51.214;9.202;2022-09-13T16:12:03;4.88;;;1.90;;
30617;SDS011;17384;51.214;9.202;2022-09-13T16:14:28;1.55;;;1.40;;
30617;SDS011;17384;51.214;9.202;2022-09-13T16:16:53;2.58;;;1.83;;
30617;SDS011;17384;51.214;9.202;2022-09-13T16:19:19;5.43;;;2.50;;
30617;SDS011;17384;51.214;9.202;2022-09-13T16:21:45;5.40;;;2.72;;
30617;SDS011;17384;51.214;9.202;2022-09-13T16:24:11;4.97;;;2.97;;
30617;SDS011;17384;51.214;9.202;2022-09-13T16:26:37;5.40;;;2.47;;
30617;SDS011;17384;51.214;9.202;2022-09-13T16:29:02;4.95;;;2.28;;
30617;SDS011;17384;51.214;9.202;2022-09-13T16:31:28;5.15;;;2.80;;
30617;SDS011;17384;51.214;9.202;2022-09-13T16:33:53;7.63;;;2.80;;
30617;SDS011;17384;51.214;9.202;2022-09-13T16:36:18;7.85;;;3.10;;
30617;SDS011;17384;51.214;9.202;2022-09-13T16:38:44;5.82;;;3.00;;
30617;SDS011;17384;51.214;9.202;2022-09-13T16:41:09;7.20;;;3.60;;
30617;SDS011;17384;51.214;9.202;2022-09-13T16:43:35;13.48;;;4.95;;
30617;SDS011;17384;51.214;9.202;2022-09-13T16:46:09;11.13;;;5.18;;
30617;SDS011;17384;51.214;9.202;2022-09-13T16:48:35;10.13;;;6.05;;
30617;SDS011;17384;51.214;9.202;2022-09-13T16:51:04;12.57;;;6.00;;
30617;SDS011;17384;51.214;9.202;2022-09-13T16:53:34;9.30;;;5.40;;
30617;SDS011;17384;51.214;9.202;2022-09-13T16:56:06;8.60;;;5.88;;
30617;SDS011;17384;51.214;9.202;2022-09-13T16:58:34;11.43;;;6.22;;
30617;SDS011;17384;51.214;9.202;2022-09-13T17:01:00;10.40;;;6.50;;
30617;SDS011;17384;51.214;9.202;2022-09-13T17:03:27;9.38;;;6.32;;
30617;SDS011;17384;51.214;9.202;2022-09-13T17:05:56;15.50;;;6.63;;
30617;SDS011;17384;51.214;9.202;2022-09-13T17:08:21;12.63;;;6.90;;
30617;SDS011;17384;51.214;9.202;2022-09-13T17:10:47;13.77;;;7.00;;
30617;SDS011;17384;51.214;9.202;2022-09-13T17:13:12;16.60;;;8.77;;
30617;SDS011;17384;51.214;9.202;2022-09-13T17:15:38;12.70;;;9.15;;
30617;SDS011;17384;51.214;9.202;2022-09-13T17:18:03;15.00;;;9.15;;
30617;SDS011;17384;51.214;9.202;2022-09-13T17:20:29;13.43;;;9.60;;
30617;SDS011;17384;51.214;9.202;2022-09-13T17:22:54;13.77;;;9.70;;
30617;SDS011;17384;51.214;9.202;2022-09-13T17:25:19;18.73;;;9.88;;
30617;SDS011;17384;51.214;9.202;2022-09-13T17:27:45;12.73;;;9.40;;
30617;SDS011;17384;51.214;9.202;2022-09-13T17:30:10;15.85;;;10.82;;
30617;SDS011;17384;51.214;9.202;2022-09-13T17:32:36;14.77;;;10.43;;